sensor_id;sensor_type;location;lat;lon;timestamp;pressure;altitude;pressure_sealevel;temperature;humidity
56040;BME280;43937;41.366;2.072;2023-04-06T00:06:08;101159.06;;;13.61;70.64
56040;BME280;43937;41.366;2.072;2023-04-06T00:12:17;101161.47;;;13.64;70.31
56040;BME280;43937;41.366;2.072;2023-04-06T00:17:28;101144.03;;;13.65;70.38
56040;BME280;43937;41.366;2.072;2023-04-06T00:19:53;101161.41;;;13.81;69.74
56040;BME280;43937;41.366;2.072;2023-04-06T00:27:45;101188.22;;;13.85;70.15
56040;BME280;43937;41.366;2.072;2023-04-06T00:30:27;101121.75;;;13.29;70.63
56040;BME280;43937;41.366;2.072;2023-04-06T00:46:34;101166.69;;;13.35;72.43
56040;BME280;43937;41.366;2.072;2023-04-06T00:52:27;101178.97;;;13.47;71.83
56040;BME280;43937;41.366;2.072;2023-04-06T00:54:53;101186.47;;;13.45;72.30
56040;BME280;43937;41.366;2.072;2023-04-06T00:57:19;101179.50;;;13.34;72.03
56040;BME280;43937;41.366;2.072;2023-04-06T01:01:53;101107.44;;;12.94;72.13
56040;BME280;43937;41.366;2.072;2023-04-06T01:07:06;101131.53;;;12.99;72.20
56040;BME280;43937;41.366;2.072;2023-04-06T01:16:43;101167.38;;;13.20;72.36
56040;BME280;43937;41.366;2.072;2023-04-06T01:19:12;101171.66;;;13.15;73.10
56040;BME280;43937;41.366;2.072;2023-04-06T01:24:28;101164.13;;;13.25;72.27
56040;BME280;43937;41.366;2.072;2023-04-06T01:31:10;101106.59;;;13.02;71.99
56040;BME280;43937;41.366;2.072;2023-04-06T01:38:49;101135.75;;;13.34;71.43
56040;BME280;43937;41.366;2.072;2023-04-06T01:45:28;101159.16;;;13.37;71.65
56040;BME280;43937;41.366;2.072;2023-04-06T01:50:25;101146.53;;;13.36;72.25
56040;BME280;43937;41.366;2.072;2023-04-06T02:02:26;101101.63;;;12.97;71.77
56040;BME280;43937;41.366;2.072;2023-04-06T02:04:52;101149.28;;;13.11;72.01
56040;BME280;43937;41.366;2.072;2023-04-06T02:09:36;101151.81;;;13.21;71.69
56040;BME280;43937;41.366;2.072;2023-04-06T02:13:31;101121.28;;;12.93;71.85
56040;BME280;43937;41.366;2.072;2023-04-06T02:16:59;101131.53;;;12.82;72.61
56040;BME280;43937;41.366;2.072;2023-04-06T02:25:29;101110.38;;;12.76;72.63
56040;BME280;43937;41.366;2.072;2023-04-06T02:27:54;101097.59;;;12.69;73.33
56040;BME280;43937;41.366;2.072;2023-04-06T02:30:20;101124.56;;;12.80;73.04
56040;BME280;43937;41.366;2.072;2023-04-06T02:32:45;101133.59;;;12.80;73.14
56040;BME280;43937;41.366;2.072;2023-04-06T02:35:47;101114.84;;;12.53;72.83
56040;BME280;43937;41.366;2.072;2023-04-06T02:38:13;101135.66;;;12.62;72.58
56040;BME280;43937;41.366;2.072;2023-04-06T02:42:34;101134.28;;;12.50;73.42
56040;BME280;43937;41.366;2.072;2023-04-06T02:55:11;101120.25;;;12.20;74.60
56040;BME280;43937;41.366;2.072;2023-04-06T03:03:06;101122.34;;;12.34;75.15
56040;BME280;43937;41.366;2.072;2023-04-06T03:08:38;101117.22;;;12.48;74.25
56040;BME280;43937;41.366;2.072;2023-04-06T03:13:09;101121.28;;;12.52;74.12
56040;BME280;43937;41.366;2.072;2023-04-06T03:19:49;101116.19;;;12.41;74.75
56040;BME280;43937;41.366;2.072;2023-04-06T03:28:32;101120.59;;;12.17;74.68
56040;BME280;43937;41.366;2.072;2023-04-06T03:35:41;101116.66;;;12.11;74.38
56040;BME280;43937;41.366;2.072;2023-04-06T03:38:06;101062.28;;;11.67;74.92
56040;BME280;43937;41.366;2.072;2023-04-06T03:49:25;101133.56;;;11.73;75.34
56040;BME280;43937;41.366;2.072;2023-04-06T03:54:51;101084.19;;;11.50;75.63
56040;BME280;43937;41.366;2.072;2023-04-06T03:59:36;101122.97;;;11.69;75.24
56040;BME280;43937;41.366;2.072;2023-04-06T04:16:20;101130.97;;;12.05;73.69
56040;BME280;43937;41.366;2.072;2023-04-06T04:20:48;101141.38;;;12.10;74.21
56040;BME280;43937;41.366;2.072;2023-04-06T04:23:14;101143.94;;;12.11;74.72
56040;BME280;43937;41.366;2.072;2023-04-06T04:25:40;101078.16;;;11.72;74.08
56040;BME280;43937;41.366;2.072;2023-04-06T04:30:36;101135.75;;;12.11;74.89
56040;BME280;43937;41.366;2.072;2023-04-06T04:33:38;101114.22;;;12.00;75.79
56040;BME280;43937;41.366;2.072;2023-04-06T04:42:16;101099.59;;;12.01;75.41
56040;BME280;43937;41.366;2.072;2023-04-06T04:48:12;101126.72;;;12.11;76.63
56040;BME280;43937;41.366;2.072;2023-04-06T05:12:21;101118.69;;;11.67;72.16
56040;BME280;43937;41.366;2.072;2023-04-06T05:23:29;101163.13;;;11.85;73.43
56040;BME280;43937;41.366;2.072;2023-04-06T05:27:32;101165.84;;;11.85;72.71
56040;BME280;43937;41.366;2.072;2023-04-06T05:29:58;101168.31;;;12.05;72.20
56040;BME280;43937;41.366;2.072;2023-04-06T05:43:41;101157.69;;;11.94;71.52
56040;BME280;43937;41.366;2.072;2023-04-06T05:55:43;101188.78;;;12.09;69.28
56040;BME280;43937;41.366;2.072;2023-04-06T05:58:09;101188.09;;;12.07;68.99
56040;BME280;43937;41.366;2.072;2023-04-06T06:00:34;101199.84;;;11.99;69.49
56040;BME280;43937;41.366;2.072;2023-04-06T06:04:59;101201.72;;;11.99;68.59
56040;BME280;43937;41.366;2.072;2023-04-06T06:12:26;101141.00;;;11.97;67.91
56040;BME280;43937;41.366;2.072;2023-04-06T06:17:22;101198.63;;;12.60;66.73
56040;BME280;43937;41.366;2.072;2023-04-06T06:25:16;101217.38;;;14.95;60.53
56040;BME280;43937;41.366;2.072;2023-04-06T06:32:36;101216.28;;;20.28;45.57
56040;BME280;43937;41.366;2.072;2023-04-06T06:36:07;101225.88;;;22.21;40.36
56040;BME280;43937;41.366;2.072;2023-04-06T07:00:45;101232.25;;;24.82;33.83
56040;BME280;43937;41.366;2.072;2023-04-06T07:03:11;101216.75;;;23.35;36.78
56040;BME280;43937;41.366;2.072;2023-04-06T07:09:10;101223.22;;;22.08;38.62
56040;BME280;43937;41.366;2.072;2023-04-06T07:12:15;101199.34;;;21.20;39.98
56040;BME280;43937;41.366;2.072;2023-04-06T07:19:00;101240.63;;;18.87;45.51
56040;BME280;43937;41.366;2.072;2023-04-06T07:53:23;101214.44;;;16.74;53.86
56040;BME280;43937;41.366;2.072;2023-04-06T08:13:34;101262.72;;;20.65;43.53
56040;BME280;43937;41.366;2.072;2023-04-06T08:19:33;101262.47;;;20.14;44.89
56040;BME280;43937;41.366;2.072;2023-04-06T08:25:18;101271.44;;;22.62;39.57
56040;BME280;43937;41.366;2.072;2023-04-06T08:29:03;101250.25;;;22.98;38.46
56040;BME280;43937;41.366;2.072;2023-04-06T08:32:42;101276.72;;;22.33;39.03
56040;BME280;43937;41.366;2.072;2023-04-06T08:42:56;101288.06;;;22.07;39.82
56040;BME280;43937;41.366;2.072;2023-04-06T08:47:38;101263.38;;;21.80;40.90
56040;BME280;43937;41.366;2.072;2023-04-06T09:00:11;101288.41;;;22.84;39.59
56040;BME280;43937;41.366;2.072;2023-04-06T09:13:26;101293.41;;;23.77;40.88
56040;BME280;43937;41.366;2.072;2023-04-06T09:23:42;101234.81;;;22.53;45.42
56040;BME280;43937;41.366;2.072;2023-04-06T09:37:50;101304.03;;;23.81;43.76
56040;BME280;43937;41.366;2.072;2023-04-06T09:49:11;101304.59;;;23.59;44.41
56040;BME280;43937;41.366;2.072;2023-04-06T09:52:54;101295.69;;;23.15;44.82
56040;BME280;43937;41.366;2.072;2023-04-06T10:00:06;101295.03;;;21.66;47.83
56040;BME280;43937;41.366;2.072;2023-04-06T10:08:16;101300.53;;;21.47;49.53
56040;BME280;43937;41.366;2.072;2023-04-06T10:10:43;101288.00;;;22.50;47.38
56040;BME280;43937;41.366;2.072;2023-04-06T10:18:28;101288.53;;;23.07;46.16
56040;BME280;43937;41.366;2.072;2023-04-06T10:29:03;101279.16;;;23.74;44.56
56040;BME280;43937;41.366;2.072;2023-04-06T10:42:37;101269.41;;;24.87;42.53
56040;BME280;43937;41.366;2.072;2023-04-06T10:48:40;101256.78;;;25.42;40.90
56040;BME280;43937;41.366;2.072;2023-04-06T10:57:57;101256.50;;;25.27;40.26
56040;BME280;43937;41.366;2.072;2023-04-06T11:14:19;101250.00;;;26.11;39.83
56040;BME280;43937;41.366;2.072;2023-04-06T11:16:46;101204.16;;;26.23;38.68
56040;BME280;43937;41.366;2.072;2023-04-06T11:33:41;101230.31;;;23.90;44.05
56040;BME280;43937;41.366;2.072;2023-04-06T11:46:57;101237.38;;;24.73;42.30
56040;BME280;43937;41.366;2.072;2023-04-06T11:52:01;101215.88;;;24.16;43.61
56040;BME280;43937;41.366;2.072;2023-04-06T11:55:39;101224.16;;;24.52;42.45
56040;BME280;43937;41.366;2.072;2023-04-06T12:06:06;101210.50;;;24.38;42.18
56040;BME280;43937;41.366;2.072;2023-04-06T12:18:02;101201.94;;;23.76;43.25
56040;BME280;43937;41.366;2.072;2023-04-06T12:24:36;101204.31;;;23.49;40.21
56040;BME280;43937;41.366;2.072;2023-04-06T12:31:31;101147.50;;;22.56;43.16
56040;BME280;43937;41.366;2.072;2023-04-06T12:42:15;101183.91;;;23.31;41.45
56040;BME280;43937;41.366;2.072;2023-04-06T12:45:12;101193.22;;;23.49;42.39
56040;BME280;43937;41.366;2.072;2023-04-06T13:05:48;101172.56;;;22.79;41.12
56040;BME280;43937;41.366;2.072;2023-04-06T13:15:51;101161.69;;;22.78;41.06
56040;BME280;43937;41.366;2.072;2023-04-06T13:18:16;101168.94;;;22.79;40.96
56040;BME280;43937;41.366;2.072;2023-04-06T13:23:52;101123.78;;;22.11;40.46
56040;BME280;43937;41.366;2.072;2023-04-06T13:31:44;101158.34;;;22.46;40.56
56040;BME280;43937;41.366;2.072;2023-04-06T13:45:50;101159.75;;;22.36;39.47
56040;BME280;43937;41.366;2.072;2023-04-06T13:49:44;101135.84;;;21.68;42.71
56040;BME280;43937;41.366;2.072;2023-04-06T13:54:56;101141.06;;;21.95;41.59
56040;BME280;43937;41.366;2.072;2023-04-06T14:03:22;101131.06;;;21.94;39.99
56040;BME280;43937;41.366;2.072;2023-04-06T14:09:14;101028.19;;;20.73;42.29
56040;BME280;43937;41.366;2.072;2023-04-06T14:12:55;101122.16;;;21.05;42.03
56040;BME280;43937;41.366;2.072;2023-04-06T14:30:01;101127.19;;;20.65;44.44
56040;BME280;43937;41.366;2.072;2023-04-06T14:36:41;101131.03;;;21.39;42.49
56040;BME280;43937;41.366;2.072;2023-04-06T14:41:29;101118.03;;;21.14;43.21
56040;BME280;43937;41.366;2.072;2023-04-06T14:46:13;101092.09;;;20.27;43.01
56040;BME280;43937;41.366;2.072;2023-04-06T14:51:42;101066.25;;;20.46;42.34
56040;BME280;43937;41.366;2.072;2023-04-06T14:59:12;101123.09;;;20.35;43.97
56040;BME280;43937;41.366;2.072;2023-04-06T15:02:46;101058.19;;;19.68;44.37
56040;BME280;43937;41.366;2.072;2023-04-06T15:08:10;101087.84;;;20.63;45.01
56040;BME280;43937;41.366;2.072;2023-04-06T15:10:36;101100.19;;;20.60;45.90
56040;BME280;43937;41.366;2.072;2023-04-06T15:30:18;101064.66;;;19.94;47.01
56040;BME280;43937;41.366;2.072;2023-04-06T15:43:01;101067.88;;;19.84;46.38
56040;BME280;43937;41.366;2.072;2023-04-06T15:46:42;101087.09;;;19.65;48.48
56040;BME280;43937;41.366;2.072;2023-04-06T15:50:01;101088.31;;;19.83;46.86
56040;BME280;43937;41.366;2.072;2023-04-06T15:53:14;101043.34;;;19.56;45.24
56040;BME280;43937;41.366;2.072;2023-04-06T15:56:09;101097.47;;;20.15;44.82
56040;BME280;43937;41.366;2.072;2023-04-06T16:16:16;101090.56;;;19.21;40.38
56040;BME280;43937;41.366;2.072;2023-04-06T16:20:49;101093.13;;;19.29;45.32
56040;BME280;43937;41.366;2.072;2023-04-06T16:27:45;101076.38;;;19.17;47.13
56040;BME280;43937;41.366;2.072;2023-04-06T16:30:11;101104.28;;;19.54;47.47
56040;BME280;43937;41.366;2.072;2023-04-06T16:34:20;101099.88;;;19.33;48.81
56040;BME280;43937;41.366;2.072;2023-04-06T16:40:26;101097.59;;;18.97;48.83
56040;BME280;43937;41.366;2.072;2023-04-06T16:42:52;101066.63;;;19.08;47.57
56040;BME280;43937;41.366;2.072;2023-04-06T16:45:19;101119.28;;;18.80;49.79
56040;BME280;43937;41.366;2.072;2023-04-06T16:58:36;101119.88;;;18.75;50.09
56040;BME280;43937;41.366;2.072;2023-04-06T17:04:25;101127.13;;;18.76;50.33
56040;BME280;43937;41.366;2.072;2023-04-06T17:12:22;101126.41;;;18.48;51.93
56040;BME280;43937;41.366;2.072;2023-04-06T17:16:34;101129.16;;;18.54;51.69
56040;BME280;43937;41.366;2.072;2023-04-06T17:24:18;101129.50;;;18.12;54.32
56040;BME280;43937;41.366;2.072;2023-04-06T17:31:07;101091.97;;;17.56;56.15
56040;BME280;43937;41.366;2.072;2023-04-06T17:38:23;101129.84;;;17.89;55.71
56040;BME280;43937;41.366;2.072;2023-04-06T17:41:13;101098.59;;;17.68;55.43
56040;BME280;43937;41.366;2.072;2023-04-06T17:43:39;101072.25;;;17.17;55.94
56040;BME280;43937;41.366;2.072;2023-04-06T17:47:25;101143.84;;;17.59;56.39
56040;BME280;43937;41.366;2.072;2023-04-06T17:54:54;101140.06;;;17.25;56.41
56040;BME280;43937;41.366;2.072;2023-04-06T18:04:20;101094.94;;;16.91;57.81
56040;BME280;43937;41.366;2.072;2023-04-06T18:06:46;101146.00;;;17.29;58.09
56040;BME280;43937;41.366;2.072;2023-04-06T18:13:42;101119.84;;;16.83;58.72
56040;BME280;43937;41.366;2.072;2023-04-06T18:27:01;101150.44;;;16.59;60.82
56040;BME280;43937;41.366;2.072;2023-04-06T18:30:46;101110.34;;;16.07;61.24
56040;BME280;43937;41.366;2.072;2023-04-06T18:34:20;101154.34;;;16.28;62.11
56040;BME280;43937;41.366;2.072;2023-04-06T18:36:46;101119.50;;;15.92;63.13
56040;BME280;43937;41.366;2.072;2023-04-06T18:41:24;101145.91;;;15.93;63.78
56040;BME280;43937;41.366;2.072;2023-04-06T18:47:44;101150.81;;;15.98;64.01
56040;BME280;43937;41.366;2.072;2023-04-06T18:51:03;101181.56;;;16.08;63.88
56040;BME280;43937;41.366;2.072;2023-04-06T18:53:28;101127.28;;;15.89;63.32
56040;BME280;43937;41.366;2.072;2023-04-06T18:59:22;101194.63;;;16.06;64.29
56040;BME280;43937;41.366;2.072;2023-04-06T19:17:07;101185.25;;;16.00;63.71
56040;BME280;43937;41.366;2.072;2023-04-06T19:19:56;101202.50;;;15.94;64.11
56040;BME280;43937;41.366;2.072;2023-04-06T19:22:36;101209.03;;;15.93;64.10
56040;BME280;43937;41.366;2.072;2023-04-06T19:26:40;101190.41;;;15.74;64.82
56040;BME280;43937;41.366;2.072;2023-04-06T19:30:07;101217.00;;;15.88;65.01
56040;BME280;43937;41.366;2.072;2023-04-06T19:34:18;101206.97;;;15.80;64.26
56040;BME280;43937;41.366;2.072;2023-04-06T19:37:32;101223.16;;;15.90;65.22
56040;BME280;43937;41.366;2.072;2023-04-06T19:41:08;101195.28;;;15.64;64.56
56040;BME280;43937;41.366;2.072;2023-04-06T19:43:34;101236.88;;;15.90;65.14
56040;BME280;43937;41.366;2.072;2023-04-06T19:46:00;101236.97;;;15.97;64.71
56040;BME280;43937;41.366;2.072;2023-04-06T19:49:39;101234.03;;;15.69;65.15
56040;BME280;43937;41.366;2.072;2023-04-06T19:52:13;101230.13;;;15.63;64.96
56040;BME280;43937;41.366;2.072;2023-04-06T19:54:39;101237.63;;;15.69;64.88
56040;BME280;43937;41.366;2.072;2023-04-06T19:59:11;101242.94;;;15.71;64.96
56040;BME280;43937;41.366;2.072;2023-04-06T20:07:55;101228.59;;;15.61;65.32
56040;BME280;43937;41.366;2.072;2023-04-06T20:13:41;101250.81;;;15.74;64.87
56040;BME280;43937;41.366;2.072;2023-04-06T20:17:00;101243.97;;;15.70;65.44
56040;BME280;43937;41.366;2.072;2023-04-06T20:21:43;101247.38;;;15.72;65.35
56040;BME280;43937;41.366;2.072;2023-04-06T20:30:35;101259.31;;;15.79;64.59
56040;BME280;43937;41.366;2.072;2023-04-06T20:33:14;101246.72;;;15.70;64.91
56040;BME280;43937;41.366;2.072;2023-04-06T20:39:44;101254.41;;;15.89;64.34
56040;BME280;43937;41.366;2.072;2023-04-06T20:42:40;101267.16;;;15.82;64.03
56040;BME280;43937;41.366;2.072;2023-04-06T20:55:52;101200.56;;;15.35;63.95
56040;BME280;43937;41.366;2.072;2023-04-06T20:58:17;101252.53;;;15.67;63.45
56040;BME280;43937;41.366;2.072;2023-04-06T21:04:08;101202.75;;;15.40;63.42
56040;BME280;43937;41.366;2.072;2023-04-06T21:10:02;101224.03;;;15.38;62.50
56040;BME280;43937;41.366;2.072;2023-04-06T21:13:34;101254.13;;;15.46;61.27
56040;BME280;43937;41.366;2.072;2023-04-06T21:20:56;101218.09;;;15.11;61.75
56040;BME280;43937;41.366;2.072;2023-04-06T21:23:22;101247.00;;;15.22;61.03
56040;BME280;43937;41.366;2.072;2023-04-06T21:26:03;101188.47;;;14.69;61.15
56040;BME280;43937;41.366;2.072;2023-04-06T21:28:28;101211.59;;;14.66;61.70
56040;BME280;43937;41.366;2.072;2023-04-06T21:32:37;101227.31;;;14.73;62.45
56040;BME280;43937;41.366;2.072;2023-04-06T21:35:02;101231.53;;;14.83;62.39
56040;BME280;43937;41.366;2.072;2023-04-06T21:50:38;101225.81;;;14.93;63.08
56040;BME280;43937;41.366;2.072;2023-04-06T21:55:12;101167.91;;;14.42;63.67
56040;BME280;43937;41.366;2.072;2023-04-06T21:57:38;101238.59;;;14.78;63.86
56040;BME280;43937;41.366;2.072;2023-04-06T22:00:05;101218.72;;;14.76;64.41
56040;BME280;43937;41.366;2.072;2023-04-06T22:04:52;101231.78;;;14.74;64.26
56040;BME280;43937;41.366;2.072;2023-04-06T22:07:17;101199.72;;;14.51;64.51
56040;BME280;43937;41.366;2.072;2023-04-06T22:19:37;101171.41;;;14.28;63.15
56040;BME280;43937;41.366;2.072;2023-04-06T22:24:33;101226.47;;;14.41;63.15
56040;BME280;43937;41.366;2.072;2023-04-06T22:31:46;101224.75;;;14.40;62.15
56040;BME280;43937;41.366;2.072;2023-04-06T22:34:11;101218.91;;;14.43;62.46
56040;BME280;43937;41.366;2.072;2023-04-06T22:38:01;101204.84;;;14.46;60.65
56040;BME280;43937;41.366;2.072;2023-04-06T22:49:21;101195.78;;;14.46;60.64
56040;BME280;43937;41.366;2.072;2023-04-06T22:51:46;101194.81;;;14.38;60.39
56040;BME280;43937;41.366;2.072;2023-04-06T22:59:27;101096.34;;;13.68;60.76
56040;BME280;43937;41.366;2.072;2023-04-06T23:01:53;101220.69;;;14.28;61.01
56040;BME280;43937;41.366;2.072;2023-04-06T23:09:16;101217.38;;;14.09;61.88
56040;BME280;43937;41.366;2.072;2023-04-06T23:11:42;101219.25;;;14.09;61.49
56040;BME280;43937;41.366;2.072;2023-04-06T23:15:24;101211.63;;;13.96;62.18
56040;BME280;43937;41.366;2.072;2023-04-06T23:18:39;101210.13;;;13.85;62.56
56040;BME280;43937;41.366;2.072;2023-04-06T23:21:41;101177.56;;;13.59;62.24
56040;BME280;43937;41.366;2.072;2023-04-06T23:25:27;101159.50;;;13.42;62.52
56040;BME280;43937;41.366;2.072;2023-04-06T23:28:41;101183.03;;;13.59;62.63
56040;BME280;43937;41.366;2.072;2023-04-06T23:31:06;101198.19;;;13.70;62.80
56040;BME280;43937;41.366;2.072;2023-04-06T23:34:05;101170.25;;;13.43;62.95
56040;BME280;43937;41.366;2.072;2023-04-06T23:36:31;101183.41;;;13.40;63.07
56040;BME280;43937;41.366;2.072;2023-04-06T23:39:11;101108.47;;;12.85;63.72
56040;BME280;43937;41.366;2.072;2023-04-06T23:42:20;101182.75;;;13.29;63.71
56040;BME280;43937;41.366;2.072;2023-04-06T23:47:18;101160.88;;;13.21;63.12
56040;BME280;43937;41.366;2.072;2023-04-06T23:51:21;101169.25;;;13.20;63.98
56040;BME280;43937;41.366;2.072;2023-04-06T23:53:46;101169.06;;;13.21;63.45
56040;BME280;43937;41.366;2.072;2023-04-06T23:57:31;101175.38;;;13.22;63.36
